sensor_id;sensor_type;location;lat;lon;timestamp;temperature;humidity
65408;DHT22;52017;51.230;-2.322;2022-11-20T00:02:17;8.50;79.30
65408;DHT22;52017;51.230;-2.322;2022-11-20T00:06:04;8.50;79.50
65408;DHT22;52017;51.230;-2.322;2022-11-20T00:09:50;8.50;79.90
65408;DHT22;52017;51.230;-2.322;2022-11-20T00:13:35;8.50;79.90
65408;DHT22;52017;51.230;-2.322;2022-11-20T00:17:22;8.50;80.10
65408;DHT22;52017;51.230;-2.322;2022-11-20T00:21:07;8.50;80.30
65408;DHT22;52017;51.230;-2.322;2022-11-20T00:24:57;8.50;80.40
65408;DHT22;52017;51.230;-2.322;2022-11-20T00:28:53;8.50;81.10
65408;DHT22;52017;51.230;-2.322;2022-11-20T00:32:38;8.50;81.90
65408;DHT22;52017;51.230;-2.322;2022-11-20T00:36:22;8.50;81.00
65408;DHT22;52017;51.230;-2.322;2022-11-20T00:40:06;8.50;81.10
65408;DHT22;52017;51.230;-2.322;2022-11-20T00:43:48;8.50;81.30
65408;DHT22;52017;51.230;-2.322;2022-11-20T00:47:31;8.50;81.40
65408;DHT22;52017;51.230;-2.322;2022-11-20T00:51:19;8.50;81.40
65408;DHT22;52017;51.230;-2.322;2022-11-20T00:55:02;8.50;81.70
65408;DHT22;52017;51.230;-2.322;2022-11-20T00:58:46;8.40;81.80
65408;DHT22;52017;51.230;-2.322;2022-11-20T01:02:33;8.40;81.90
65408;DHT22;52017;51.230;-2.322;2022-11-20T01:10:24;8.30;82.20
65408;DHT22;52017;51.230;-2.322;2022-11-20T01:14:20;8.30;82.40
65408;DHT22;52017;51.230;-2.322;2022-11-20T01:18:04;8.30;82.50
65408;DHT22;52017;51.230;-2.322;2022-11-20T01:21:52;8.30;82.60
65408;DHT22;52017;51.230;-2.322;2022-11-20T01:25:35;8.30;83.10
65408;DHT22;52017;51.230;-2.322;2022-11-20T01:29:22;8.30;83.00
65408;DHT22;52017;51.230;-2.322;2022-11-20T01:33:05;8.40;83.40
65408;DHT22;52017;51.230;-2.322;2022-11-20T01:36:52;8.40;83.50
65408;DHT22;52017;51.230;-2.322;2022-11-20T01:40:37;8.50;83.50
65408;DHT22;52017;51.230;-2.322;2022-11-20T01:44:22;8.40;83.60
65408;DHT22;52017;51.230;-2.322;2022-11-20T01:48:54;8.40;83.70
65408;DHT22;52017;51.230;-2.322;2022-11-20T01:52:42;8.50;85.40
65408;DHT22;52017;51.230;-2.322;2022-11-20T01:56:27;8.50;84.10
65408;DHT22;52017;51.230;-2.322;2022-11-20T02:00:16;8.50;84.20
65408;DHT22;52017;51.230;-2.322;2022-11-20T02:03:59;8.60;84.30
65408;DHT22;52017;51.230;-2.322;2022-11-20T02:07:42;8.60;84.40
65408;DHT22;52017;51.230;-2.322;2022-11-20T02:11:38;8.60;84.40
65408;DHT22;52017;51.230;-2.322;2022-11-20T02:15:22;8.80;84.60
65408;DHT22;52017;51.230;-2.322;2022-11-20T02:19:23;8.70;85.00
65408;DHT22;52017;51.230;-2.322;2022-11-20T02:23:15;8.80;86.10
65408;DHT22;52017;51.230;-2.322;2022-11-20T02:27:09;8.80;85.10
65408;DHT22;52017;51.230;-2.322;2022-11-20T02:30:51;8.90;86.00
65408;DHT22;52017;51.230;-2.322;2022-11-20T02:34:33;8.90;85.20
65408;DHT22;52017;51.230;-2.322;2022-11-20T02:38:15;8.90;85.40
65408;DHT22;52017;51.230;-2.322;2022-11-20T02:41:58;8.90;85.50
65408;DHT22;52017;51.230;-2.322;2022-11-20T02:45:42;8.90;85.60
65408;DHT22;52017;51.230;-2.322;2022-11-20T02:49:25;9.00;85.70
65408;DHT22;52017;51.230;-2.322;2022-11-20T02:53:07;8.90;85.80
65408;DHT22;52017;51.230;-2.322;2022-11-20T02:56:49;9.00;86.00
65408;DHT22;52017;51.230;-2.322;2022-11-20T03:00:31;9.00;86.00
65408;DHT22;52017;51.230;-2.322;2022-11-20T03:04:16;9.00;86.10
65408;DHT22;52017;51.230;-2.322;2022-11-20T03:08:01;9.00;86.30
65408;DHT22;52017;51.230;-2.322;2022-11-20T03:11:44;9.00;86.30
65408;DHT22;52017;51.230;-2.322;2022-11-20T03:15:26;9.10;86.30
65408;DHT22;52017;51.230;-2.322;2022-11-20T03:19:08;9.10;86.40
65408;DHT22;52017;51.230;-2.322;2022-11-20T03:22:51;9.10;86.50
65408;DHT22;52017;51.230;-2.322;2022-11-20T03:26:35;9.20;86.60
65408;DHT22;52017;51.230;-2.322;2022-11-20T03:30:17;9.20;86.60
65408;DHT22;52017;51.230;-2.322;2022-11-20T03:34:00;9.30;86.70
65408;DHT22;52017;51.230;-2.322;2022-11-20T03:37:43;9.30;86.70
65408;DHT22;52017;51.230;-2.322;2022-11-20T03:41:30;9.30;86.80
65408;DHT22;52017;51.230;-2.322;2022-11-20T03:45:14;9.30;87.00
65408;DHT22;52017;51.230;-2.322;2022-11-20T03:48:56;9.40;86.90
65408;DHT22;52017;51.230;-2.322;2022-11-20T03:52:39;9.40;86.90
65408;DHT22;52017;51.230;-2.322;2022-11-20T03:56:33;9.40;86.90
65408;DHT22;52017;51.230;-2.322;2022-11-20T04:00:15;9.30;86.90
65408;DHT22;52017;51.230;-2.322;2022-11-20T04:03:58;9.30;87.00
65408;DHT22;52017;51.230;-2.322;2022-11-20T04:07:41;9.40;87.00
65408;DHT22;52017;51.230;-2.322;2022-11-20T04:11:25;9.40;87.20
65408;DHT22;52017;51.230;-2.322;2022-11-20T04:15:08;9.40;87.20
65408;DHT22;52017;51.230;-2.322;2022-11-20T04:18:58;9.50;87.40
65408;DHT22;52017;51.230;-2.322;2022-11-20T04:22:40;9.50;87.40
65408;DHT22;52017;51.230;-2.322;2022-11-20T04:26:24;9.50;87.30
65408;DHT22;52017;51.230;-2.322;2022-11-20T04:30:07;9.50;87.20
65408;DHT22;52017;51.230;-2.322;2022-11-20T04:33:50;9.40;87.30
65408;DHT22;52017;51.230;-2.322;2022-11-20T04:37:34;9.30;87.20
65408;DHT22;52017;51.230;-2.322;2022-11-20T04:41:18;9.20;87.10
65408;DHT22;52017;51.230;-2.322;2022-11-20T04:45:00;9.10;87.10
65408;DHT22;52017;51.230;-2.322;2022-11-20T04:48:42;9.10;87.30
65408;DHT22;52017;51.230;-2.322;2022-11-20T04:52:26;9.10;87.50
65408;DHT22;52017;51.230;-2.322;2022-11-20T04:56:12;9.10;87.60
65408;DHT22;52017;51.230;-2.322;2022-11-20T04:59:55;9.10;87.50
65408;DHT22;52017;51.230;-2.322;2022-11-20T05:03:38;9.10;87.30
65408;DHT22;52017;51.230;-2.322;2022-11-20T05:07:26;9.00;87.40
65408;DHT22;52017;51.230;-2.322;2022-11-20T05:11:14;9.00;87.50
65408;DHT22;52017;51.230;-2.322;2022-11-20T05:14:56;9.00;87.50
65408;DHT22;52017;51.230;-2.322;2022-11-20T05:18:39;9.00;87.50
65408;DHT22;52017;51.230;-2.322;2022-11-20T05:22:23;9.00;87.40
65408;DHT22;52017;51.230;-2.322;2022-11-20T05:26:08;8.90;87.40
65408;DHT22;52017;51.230;-2.322;2022-11-20T05:29:55;8.90;87.40
65408;DHT22;52017;51.230;-2.322;2022-11-20T05:33:43;8.80;87.40
65408;DHT22;52017;51.230;-2.322;2022-11-20T05:37:29;8.70;87.40
65408;DHT22;52017;51.230;-2.322;2022-11-20T05:41:13;8.70;87.40
65408;DHT22;52017;51.230;-2.322;2022-11-20T05:44:59;8.60;87.40
65408;DHT22;52017;51.230;-2.322;2022-11-20T05:48:42;8.60;87.40
65408;DHT22;52017;51.230;-2.322;2022-11-20T05:52:30;8.50;87.50
65408;DHT22;52017;51.230;-2.322;2022-11-20T05:56:17;8.50;87.60
65408;DHT22;52017;51.230;-2.322;2022-11-20T06:00:00;8.50;87.60
65408;DHT22;52017;51.230;-2.322;2022-11-20T06:03:42;8.50;87.60
65408;DHT22;52017;51.230;-2.322;2022-11-20T06:07:29;8.50;87.60
65408;DHT22;52017;51.230;-2.322;2022-11-20T06:11:12;8.40;87.70
65408;DHT22;52017;51.230;-2.322;2022-11-20T06:14:55;8.40;87.70
65408;DHT22;52017;51.230;-2.322;2022-11-20T06:18:37;8.40;87.70
65408;DHT22;52017;51.230;-2.322;2022-11-20T06:22:20;8.30;87.80
65408;DHT22;52017;51.230;-2.322;2022-11-20T06:26:07;8.40;87.80
65408;DHT22;52017;51.230;-2.322;2022-11-20T06:29:50;8.30;87.80
65408;DHT22;52017;51.230;-2.322;2022-11-20T06:33:32;8.30;87.80
65408;DHT22;52017;51.230;-2.322;2022-11-20T06:37:14;8.30;87.80
65408;DHT22;52017;51.230;-2.322;2022-11-20T06:40:59;8.20;87.80
65408;DHT22;52017;51.230;-2.322;2022-11-20T06:44:41;8.20;87.80
65408;DHT22;52017;51.230;-2.322;2022-11-20T06:48:24;8.20;87.80
65408;DHT22;52017;51.230;-2.322;2022-11-20T06:52:07;8.20;87.80
65408;DHT22;52017;51.230;-2.322;2022-11-20T06:55:49;8.10;87.80
65408;DHT22;52017;51.230;-2.322;2022-11-20T06:59:33;8.10;87.80
65408;DHT22;52017;51.230;-2.322;2022-11-20T07:03:15;8.10;87.90
65408;DHT22;52017;51.230;-2.322;2022-11-20T07:06:57;8.00;87.90
65408;DHT22;52017;51.230;-2.322;2022-11-20T07:10:39;8.00;87.90
65408;DHT22;52017;51.230;-2.322;2022-11-20T07:14:23;8.00;87.90
65408;DHT22;52017;51.230;-2.322;2022-11-20T07:18:05;8.00;87.90
65408;DHT22;52017;51.230;-2.322;2022-11-20T07:21:47;8.00;87.90
65408;DHT22;52017;51.230;-2.322;2022-11-20T07:25:29;8.00;87.90
65408;DHT22;52017;51.230;-2.322;2022-11-20T07:29:12;7.90;87.80
65408;DHT22;52017;51.230;-2.322;2022-11-20T07:32:55;7.90;87.80
65408;DHT22;52017;51.230;-2.322;2022-11-20T07:36:38;7.90;87.90
65408;DHT22;52017;51.230;-2.322;2022-11-20T07:40:20;7.90;88.00
65408;DHT22;52017;51.230;-2.322;2022-11-20T07:44:03;7.90;88.00
65408;DHT22;52017;51.230;-2.322;2022-11-20T07:47:45;7.90;88.00
65408;DHT22;52017;51.230;-2.322;2022-11-20T07:51:27;7.90;88.00
65408;DHT22;52017;51.230;-2.322;2022-11-20T07:55:12;7.90;88.10
65408;DHT22;52017;51.230;-2.322;2022-11-20T07:58:54;7.90;88.20
65408;DHT22;52017;51.230;-2.322;2022-11-20T08:02:40;8.00;88.40
65408;DHT22;52017;51.230;-2.322;2022-11-20T08:06:23;8.10;88.60
65408;DHT22;52017;51.230;-2.322;2022-11-20T08:10:10;8.10;88.60
65408;DHT22;52017;51.230;-2.322;2022-11-20T08:13:53;8.20;88.60
65408;DHT22;52017;51.230;-2.322;2022-11-20T08:22:03;8.40;88.70
65408;DHT22;52017;51.230;-2.322;2022-11-20T08:25:49;8.40;88.60
65408;DHT22;52017;51.230;-2.322;2022-11-20T08:29:33;8.50;88.70
65408;DHT22;52017;51.230;-2.322;2022-11-20T08:33:16;8.50;88.70
65408;DHT22;52017;51.230;-2.322;2022-11-20T08:37:02;8.60;88.80
65408;DHT22;52017;51.230;-2.322;2022-11-20T08:40:45;8.60;88.70
65408;DHT22;52017;51.230;-2.322;2022-11-20T08:44:47;8.70;88.80
65408;DHT22;52017;51.230;-2.322;2022-11-20T08:48:31;8.80;88.90
65408;DHT22;52017;51.230;-2.322;2022-11-20T08:52:13;8.80;88.80
65408;DHT22;52017;51.230;-2.322;2022-11-20T08:55:57;8.90;88.70
65408;DHT22;52017;51.230;-2.322;2022-11-20T08:59:42;8.90;88.60
65408;DHT22;52017;51.230;-2.322;2022-11-20T09:03:44;8.90;88.50
65408;DHT22;52017;51.230;-2.322;2022-11-20T09:07:49;8.90;88.40
65408;DHT22;52017;51.230;-2.322;2022-11-20T09:12:18;8.80;88.90
65408;DHT22;52017;51.230;-2.322;2022-11-20T09:27:26;9.50;91.40
65408;DHT22;52017;51.230;-2.322;2022-11-20T09:31:33;10.20;90.10
65408;DHT22;52017;51.230;-2.322;2022-11-20T09:35:25;11.00;90.40
65408;DHT22;52017;51.230;-2.322;2022-11-20T09:39:23;11.80;88.90
65408;DHT22;52017;51.230;-2.322;2022-11-20T09:56:40;12.00;87.00
65408;DHT22;52017;51.230;-2.322;2022-11-20T10:00:25;12.60;87.00
65408;DHT22;52017;51.230;-2.322;2022-11-20T10:04:21;13.00;85.80
65408;DHT22;52017;51.230;-2.322;2022-11-20T10:12:18;12.50;84.80
65408;DHT22;52017;51.230;-2.322;2022-11-20T10:16:11;12.20;84.00
65408;DHT22;52017;51.230;-2.322;2022-11-20T10:24:58;11.90;84.20
65408;DHT22;52017;51.230;-2.322;2022-11-20T10:29:45;11.70;84.40
65408;DHT22;52017;51.230;-2.322;2022-11-20T10:33:36;11.70;84.90
65408;DHT22;52017;51.230;-2.322;2022-11-20T10:38:02;11.80;85.50
65408;DHT22;52017;51.230;-2.322;2022-11-20T10:41:59;12.00;85.00
65408;DHT22;52017;51.230;-2.322;2022-11-20T10:46:00;12.40;85.90
65408;DHT22;52017;51.230;-2.322;2022-11-20T10:50:10;13.10;84.90
65408;DHT22;52017;51.230;-2.322;2022-11-20T10:54:35;14.10;82.80
65408;DHT22;52017;51.230;-2.322;2022-11-20T10:58:45;14.90;80.90
65408;DHT22;52017;51.230;-2.322;2022-11-20T11:02:55;15.50;80.10
65408;DHT22;52017;51.230;-2.322;2022-11-20T11:06:48;16.30;78.90
65408;DHT22;52017;51.230;-2.322;2022-11-20T11:14:50;17.40;76.30
65408;DHT22;52017;51.230;-2.322;2022-11-20T11:23:03;15.90;75.70
65408;DHT22;52017;51.230;-2.322;2022-11-20T11:27:04;15.30;77.10
65408;DHT22;52017;51.230;-2.322;2022-11-20T11:30:58;14.90;78.40
65408;DHT22;52017;51.230;-2.322;2022-11-20T11:34:41;15.00;79.70
65408;DHT22;52017;51.230;-2.322;2022-11-20T11:38:39;15.00;78.70
65408;DHT22;52017;51.230;-2.322;2022-11-20T11:42:25;14.60;76.50
65408;DHT22;52017;51.230;-2.322;2022-11-20T11:46:35;14.50;79.50
65408;DHT22;52017;51.230;-2.322;2022-11-20T11:50:28;15.50;76.30
65408;DHT22;52017;51.230;-2.322;2022-11-20T11:54:20;16.50;75.20
65408;DHT22;52017;51.230;-2.322;2022-11-20T12:07:11;15.00;74.00
65408;DHT22;52017;51.230;-2.322;2022-11-20T12:11:43;14.60;74.90
65408;DHT22;52017;51.230;-2.322;2022-11-20T12:15:44;14.30;76.80
65408;DHT22;52017;51.230;-2.322;2022-11-20T12:19:30;14.00;75.80
65408;DHT22;52017;51.230;-2.322;2022-11-20T12:23:33;13.70;77.70
65408;DHT22;52017;51.230;-2.322;2022-11-20T12:39:47;12.40;79.60
65408;DHT22;52017;51.230;-2.322;2022-11-20T12:43:57;12.20;80.00
65408;DHT22;52017;51.230;-2.322;2022-11-20T12:52:48;13.00;80.20
65408;DHT22;52017;51.230;-2.322;2022-11-20T12:57:07;14.40;77.70
65408;DHT22;52017;51.230;-2.322;2022-11-20T13:01:29;15.90;74.40
65408;DHT22;52017;51.230;-2.322;2022-11-20T13:09:33;18.00;69.30
65408;DHT22;52017;51.230;-2.322;2022-11-20T13:13:40;18.40;67.70
65408;DHT22;52017;51.230;-2.322;2022-11-20T13:36:24;16.80;69.20
65408;DHT22;52017;51.230;-2.322;2022-11-20T13:40:19;17.30;65.50
65408;DHT22;52017;51.230;-2.322;2022-11-20T13:48:22;17.40;62.40
65408;DHT22;52017;51.230;-2.322;2022-11-20T14:00:23;16.20;63.90
65408;DHT22;52017;51.230;-2.322;2022-11-20T14:04:08;15.20;64.60
65408;DHT22;52017;51.230;-2.322;2022-11-20T14:07:51;14.60;66.90
65408;DHT22;52017;51.230;-2.322;2022-11-20T14:11:34;14.20;68.10
65408;DHT22;52017;51.230;-2.322;2022-11-20T14:15:56;13.90;68.70
65408;DHT22;52017;51.230;-2.322;2022-11-20T14:25:47;13.30;70.20
65408;DHT22;52017;51.230;-2.322;2022-11-20T14:29:56;13.10;71.30
65408;DHT22;52017;51.230;-2.322;2022-11-20T14:39:02;12.70;73.10
65408;DHT22;52017;51.230;-2.322;2022-11-20T14:42:48;12.50;72.90
65408;DHT22;52017;51.230;-2.322;2022-11-20T14:46:34;12.30;73.30
65408;DHT22;52017;51.230;-2.322;2022-11-20T14:50:27;12.10;73.60
65408;DHT22;52017;51.230;-2.322;2022-11-20T14:54:24;12.00;74.10
65408;DHT22;52017;51.230;-2.322;2022-11-20T14:58:24;11.90;74.50
65408;DHT22;52017;51.230;-2.322;2022-11-20T15:02:11;11.80;74.60
65408;DHT22;52017;51.230;-2.322;2022-11-20T15:06:12;11.70;74.70
65408;DHT22;52017;51.230;-2.322;2022-11-20T15:10:27;11.60;74.80
65408;DHT22;52017;51.230;-2.322;2022-11-20T15:14:15;11.50;75.10
65408;DHT22;52017;51.230;-2.322;2022-11-20T15:18:05;11.40;75.20
65408;DHT22;52017;51.230;-2.322;2022-11-20T15:27:12;11.20;76.00
65408;DHT22;52017;51.230;-2.322;2022-11-20T15:31:31;11.10;75.30
65408;DHT22;52017;51.230;-2.322;2022-11-20T15:35:27;11.10;75.20
65408;DHT22;52017;51.230;-2.322;2022-11-20T15:39:11;11.00;75.50
65408;DHT22;52017;51.230;-2.322;2022-11-20T15:42:58;10.90;75.60
65408;DHT22;52017;51.230;-2.322;2022-11-20T16:35:08;9.90;77.20
65408;DHT22;52017;51.230;-2.322;2022-11-20T16:44:36;9.80;77.80
65408;DHT22;52017;51.230;-2.322;2022-11-20T16:53:47;9.60;78.20
65408;DHT22;52017;51.230;-2.322;2022-11-20T16:58:43;9.50;78.00
65408;DHT22;52017;51.230;-2.322;2022-11-20T17:02:52;9.40;78.90
65408;DHT22;52017;51.230;-2.322;2022-11-20T17:18:46;9.00;78.80
65408;DHT22;52017;51.230;-2.322;2022-11-20T17:23:23;9.00;79.20
65408;DHT22;52017;51.230;-2.322;2022-11-20T17:27:36;8.80;80.30
65408;DHT22;52017;51.230;-2.322;2022-11-20T17:31:43;8.80;79.40
65408;DHT22;52017;51.230;-2.322;2022-11-20T17:36:19;8.70;79.30
65408;DHT22;52017;51.230;-2.322;2022-11-20T17:40:38;8.50;80.40
65408;DHT22;52017;51.230;-2.322;2022-11-20T17:45:15;8.50;79.70
65408;DHT22;52017;51.230;-2.322;2022-11-20T17:54:09;8.40;80.20
65408;DHT22;52017;51.230;-2.322;2022-11-20T17:58:27;8.30;81.10
65408;DHT22;52017;51.230;-2.322;2022-11-20T18:02:53;8.20;80.70
65408;DHT22;52017;51.230;-2.322;2022-11-20T18:07:25;8.20;80.20
65408;DHT22;52017;51.230;-2.322;2022-11-20T18:20:55;8.00;81.20
65408;DHT22;52017;51.230;-2.322;2022-11-20T18:25:31;7.90;80.70
65408;DHT22;52017;51.230;-2.322;2022-11-20T18:29:43;7.90;80.80
65408;DHT22;52017;51.230;-2.322;2022-11-20T18:34:03;7.80;80.70
65408;DHT22;52017;51.230;-2.322;2022-11-20T18:38:11;7.80;80.80
65408;DHT22;52017;51.230;-2.322;2022-11-20T18:42:15;7.70;81.20
65408;DHT22;52017;51.230;-2.322;2022-11-20T18:46:34;7.70;81.30
65408;DHT22;52017;51.230;-2.322;2022-11-20T18:51:09;7.60;81.20
65408;DHT22;52017;51.230;-2.322;2022-11-20T18:55:11;7.60;81.60
65408;DHT22;52017;51.230;-2.322;2022-11-20T18:59:20;7.50;81.10
65408;DHT22;52017;51.230;-2.322;2022-11-20T19:03:56;7.50;81.90
65408;DHT22;52017;51.230;-2.322;2022-11-20T19:07:55;7.50;81.90
65408;DHT22;52017;51.230;-2.322;2022-11-20T19:12:17;7.40;81.50
65408;DHT22;52017;51.230;-2.322;2022-11-20T19:21:37;7.20;81.90
65408;DHT22;52017;51.230;-2.322;2022-11-20T19:25:36;7.20;81.50
65408;DHT22;52017;51.230;-2.322;2022-11-20T19:29:33;7.20;81.60
65408;DHT22;52017;51.230;-2.322;2022-11-20T21:18:41;6.70;82.40
65408;DHT22;52017;51.230;-2.322;2022-11-20T21:30:26;6.80;82.00
65408;DHT22;52017;51.230;-2.322;2022-11-20T21:34:28;6.80;82.00
65408;DHT22;52017;51.230;-2.322;2022-11-20T21:38:18;6.90;82.00
65408;DHT22;52017;51.230;-2.322;2022-11-20T21:42:26;6.90;81.80
65408;DHT22;52017;51.230;-2.322;2022-11-20T21:46:33;6.80;81.60
65408;DHT22;52017;51.230;-2.322;2022-11-20T22:45:51;6.60;82.20
65408;DHT22;52017;51.230;-2.322;2022-11-20T22:50:04;6.50;82.20
65408;DHT22;52017;51.230;-2.322;2022-11-20T22:54:06;6.50;82.50
65408;DHT22;52017;51.230;-2.322;2022-11-20T22:58:08;6.50;82.40
65408;DHT22;52017;51.230;-2.322;2022-11-20T23:02:30;6.50;82.30
65408;DHT22;52017;51.230;-2.322;2022-11-20T23:06:33;6.50;82.50
65408;DHT22;52017;51.230;-2.322;2022-11-20T23:11:41;6.40;82.40
65408;DHT22;52017;51.230;-2.322;2022-11-20T23:15:49;6.50;83.40
65408;DHT22;52017;51.230;-2.322;2022-11-20T23:20:18;6.50;82.70
65408;DHT22;52017;51.230;-2.322;2022-11-20T23:24:53;6.50;83.50
65408;DHT22;52017;51.230;-2.322;2022-11-20T23:29:07;6.50;83.50
65408;DHT22;52017;51.230;-2.322;2022-11-20T23:33:13;6.50;83.70
65408;DHT22;52017;51.230;-2.322;2022-11-20T23:37:23;6.50;82.90
65408;DHT22;52017;51.230;-2.322;2022-11-20T23:41:32;6.50;83.10
65408;DHT22;52017;51.230;-2.322;2022-11-20T23:45:29;6.50;83.10
65408;DHT22;52017;51.230;-2.322;2022-11-20T23:49:49;6.50;82.90
65408;DHT22;52017;51.230;-2.322;2022-11-20T23:53:57;6.50;83.30
65408;DHT22;52017;51.230;-2.322;2022-11-20T23:58:34;6.50;82.80
